DAL1876 MMSD-KLAX
Flight info
| Callsign | DAL1876 |
|---|---|
| Flight time | 2h 5m |
| Altitude | 36000 |
| Route | ANEGO1A ANEGO UL312 TAGMO UT50 ASUTA DCT AMMOR OLAAA2 |
| Aircraft | A321/M-SDE3FGHIRWY/LB1 |
Departure
| Time | 2026-05-06 04:28 |
|---|---|
| Airport | Los Cabos International Airport (MMSD) |
Arrival
| Time | 2026-05-06 06:33 |
|---|---|
| Airport | Los Angeles International Airport (KLAX) |
| Time | Latitude | Longitude | Altitude | Speed | Heading |
|---|---|---|---|---|---|
| 2026-05-06 03:51 | 23.15997 | -109.71824 | 366 ft | 0 kts | 84° |
| 2026-05-06 04:16 | 23.15997 | -109.71830 | 365 ft | 4 kts | 84° |
| 2026-05-06 04:16 | 23.15994 | -109.71855 | 366 ft | 4 kts | 67° |
| 2026-05-06 04:16 | 23.15979 | -109.71872 | 368 ft | 4 kts | 4° |
| 2026-05-06 04:16 | 23.15959 | -109.71871 | 365 ft | 1 kts | 354° |
| 2026-05-06 04:17 | 23.15956 | -109.71871 | 365 ft | 0 kts | 354° |
| 2026-05-06 04:21 | 23.15957 | -109.71871 | 365 ft | 1 kts | 354° |
| 2026-05-06 04:21 | 23.16029 | -109.71879 | 368 ft | 15 kts | 354° |
| 2026-05-06 04:21 | 23.16109 | -109.71888 | 370 ft | 18 kts | 354° |
| 2026-05-06 04:22 | 23.16220 | -109.71901 | 372 ft | 14 kts | 354° |
| 2026-05-06 04:22 | 23.16295 | -109.71913 | 377 ft | 8 kts | 347° |
| 2026-05-06 04:22 | 23.16369 | -109.71923 | 381 ft | 14 kts | 354° |
| 2026-05-06 04:23 | 23.16538 | -109.71940 | 390 ft | 15 kts | 353° |
| 2026-05-06 04:23 | 23.16662 | -109.71954 | 392 ft | 18 kts | 354° |
| 2026-05-06 04:23 | 23.16743 | -109.71967 | 391 ft | 5 kts | 332° |
| 2026-05-06 04:23 | 23.16754 | -109.72001 | 390 ft | 4 kts | 273° |
| 2026-05-06 04:24 | 23.16726 | -109.72038 | 391 ft | 8 kts | 196° |
| 2026-05-06 04:24 | 23.16654 | -109.72033 | 392 ft | 11 kts | 174° |
| 2026-05-06 04:24 | 23.16613 | -109.72077 | 392 ft | 9 kts | 262° |
| 2026-05-06 04:24 | 23.16609 | -109.72129 | 392 ft | 0 kts | 264° |
| 2026-05-06 04:26 | 23.16608 | -109.72136 | 392 ft | 4 kts | 264° |
| 2026-05-06 04:26 | 23.16573 | -109.72191 | 392 ft | 13 kts | 220° |
| 2026-05-06 04:26 | 23.16537 | -109.72222 | 392 ft | 5 kts | 206° |
| 2026-05-06 04:26 | 23.16501 | -109.72221 | 391 ft | 6 kts | 174° |
| 2026-05-06 04:27 | 23.16427 | -109.72213 | 389 ft | 29 kts | 174° |
| 2026-05-06 04:27 | 23.15973 | -109.72162 | 379 ft | 99 kts | 174° |
| 2026-05-06 04:27 | 23.15096 | -109.72062 | 354 ft | 152 kts | 174° |
| 2026-05-06 04:27 | 23.13929 | -109.71931 | 551 ft | 174 kts | 174° |
| 2026-05-06 04:28 | 23.12746 | -109.71797 | 1253 ft | 170 kts | 174° |
| 2026-05-06 04:28 | 23.11566 | -109.71663 | 1873 ft | 170 kts | 175° |
| 2026-05-06 04:28 | 23.10368 | -109.71527 | 2292 ft | 180 kts | 174° |
| 2026-05-06 04:28 | 23.09044 | -109.71378 | 2427 ft | 202 kts | 174° |
| 2026-05-06 04:29 | 23.07577 | -109.71213 | 2567 ft | 222 kts | 174° |
| 2026-05-06 04:29 | 23.05967 | -109.71032 | 2723 ft | 244 kts | 174° |
| 2026-05-06 04:29 | 23.04251 | -109.71069 | 3265 ft | 249 kts | 198° |
| 2026-05-06 04:29 | 23.02839 | -109.72109 | 3908 ft | 249 kts | 236° |
| 2026-05-06 04:30 | 23.02288 | -109.73855 | 4546 ft | 248 kts | 272° |
| 2026-05-06 04:30 | 23.02797 | -109.75617 | 5169 ft | 249 kts | 303° |
| 2026-05-06 04:30 | 23.03864 | -109.77097 | 5807 ft | 250 kts | 311° |
| 2026-05-06 04:30 | 23.05034 | -109.78500 | 6454 ft | 251 kts | 311° |
| 2026-05-06 04:31 | 23.06220 | -109.79921 | 6927 ft | 261 kts | 310° |
| 2026-05-06 04:31 | 23.07471 | -109.81423 | 7273 ft | 273 kts | 310° |
| 2026-05-06 04:31 | 23.08647 | -109.83063 | 7830 ft | 276 kts | 302° |
| 2026-05-06 04:31 | 23.09690 | -109.84826 | 8425 ft | 279 kts | 299° |
| 2026-05-06 04:32 | 23.10689 | -109.86648 | 9025 ft | 282 kts | 298° |
| 2026-05-06 04:32 | 23.11689 | -109.88495 | 9617 ft | 285 kts | 299° |
| 2026-05-06 04:32 | 23.12922 | -109.90209 | 10156 ft | 293 kts | 314° |
| 2026-05-06 04:32 | 23.14586 | -109.91535 | 10568 ft | 305 kts | 325° |
| 2026-05-06 04:33 | 23.16444 | -109.92789 | 10687 ft | 324 kts | 326° |
| 2026-05-06 04:33 | 23.18431 | -109.94105 | 10808 ft | 343 kts | 326° |
| 2026-05-06 04:33 | 23.20479 | -109.95451 | 11105 ft | 353 kts | 326° |
| 2026-05-06 04:33 | 23.22599 | -109.96839 | 11637 ft | 357 kts | 326° |
| 2026-05-06 04:34 | 23.24735 | -109.98241 | 12199 ft | 360 kts | 326° |
| 2026-05-06 04:34 | 23.26885 | -109.99658 | 12778 ft | 363 kts | 326° |
| 2026-05-06 04:34 | 23.29054 | -110.01095 | 13328 ft | 366 kts | 325° |
| 2026-05-06 04:34 | 23.31235 | -110.02548 | 13890 ft | 369 kts | 325° |
| 2026-05-06 04:35 | 23.33435 | -110.04012 | 14374 ft | 372 kts | 325° |
| 2026-05-06 04:35 | 23.35655 | -110.05488 | 14840 ft | 376 kts | 325° |
| 2026-05-06 04:35 | 23.37899 | -110.06983 | 15311 ft | 380 kts | 324° |
| 2026-05-06 04:35 | 23.40165 | -110.08494 | 15780 ft | 384 kts | 324° |
| 2026-05-06 04:36 | 23.42459 | -110.10024 | 16232 ft | 388 kts | 324° |
| 2026-05-06 04:36 | 23.44770 | -110.11566 | 16680 ft | 392 kts | 324° |
| 2026-05-06 04:36 | 23.47105 | -110.13124 | 17135 ft | 396 kts | 324° |
| 2026-05-06 04:36 | 23.49465 | -110.14698 | 17577 ft | 400 kts | 324° |
| 2026-05-06 04:37 | 23.51852 | -110.16290 | 17998 ft | 404 kts | 324° |
| 2026-05-06 04:37 | 23.54149 | -110.18057 | 18395 ft | 404 kts | 315° |
| 2026-05-06 04:37 | 23.56180 | -110.20172 | 18779 ft | 404 kts | 310° |
| 2026-05-06 04:37 | 23.58176 | -110.22342 | 19187 ft | 407 kts | 310° |
| 2026-05-06 04:38 | 23.60183 | -110.24520 | 19598 ft | 408 kts | 310° |
| 2026-05-06 04:38 | 23.62207 | -110.26709 | 19989 ft | 410 kts | 310° |
| 2026-05-06 04:38 | 23.64243 | -110.28903 | 20405 ft | 412 kts | 310° |
| 2026-05-06 04:38 | 23.66286 | -110.31101 | 20833 ft | 414 kts | 309° |
| 2026-05-06 04:39 | 23.68336 | -110.33313 | 21247 ft | 415 kts | 309° |
| 2026-05-06 04:39 | 23.70389 | -110.35538 | 21641 ft | 417 kts | 309° |
| 2026-05-06 04:39 | 23.72451 | -110.37778 | 22035 ft | 419 kts | 309° |
| 2026-05-06 04:39 | 23.74524 | -110.40029 | 22418 ft | 421 kts | 309° |
| 2026-05-06 04:40 | 23.76609 | -110.42289 | 22799 ft | 423 kts | 309° |
| 2026-05-06 04:40 | 23.78669 | -110.44528 | 23165 ft | 425 kts | 309° |
| 2026-05-06 04:40 | 23.80776 | -110.46817 | 23529 ft | 428 kts | 308° |
| 2026-05-06 04:40 | 23.82885 | -110.49112 | 23824 ft | 430 kts | 308° |
| 2026-05-06 04:41 | 23.85008 | -110.51424 | 24117 ft | 431 kts | 308° |
| 2026-05-06 04:41 | 23.87136 | -110.53739 | 24422 ft | 433 kts | 308° |
| 2026-05-06 04:41 | 23.89276 | -110.56063 | 24754 ft | 434 kts | 309° |
| 2026-05-06 04:41 | 23.91480 | -110.58343 | 25103 ft | 437 kts | 311° |
| 2026-05-06 04:42 | 23.93775 | -110.60537 | 25444 ft | 440 kts | 313° |
| 2026-05-06 04:42 | 23.96135 | -110.62682 | 25767 ft | 442 kts | 314° |
| 2026-05-06 04:42 | 23.98519 | -110.64808 | 26088 ft | 443 kts | 314° |
| 2026-05-06 04:42 | 24.00909 | -110.66947 | 26401 ft | 444 kts | 313° |
| 2026-05-06 04:43 | 24.03290 | -110.69106 | 26713 ft | 445 kts | 313° |
| 2026-05-06 04:43 | 24.05662 | -110.71285 | 27020 ft | 446 kts | 313° |
| 2026-05-06 04:43 | 24.08032 | -110.73486 | 27323 ft | 447 kts | 312° |
| 2026-05-06 04:43 | 24.10395 | -110.75702 | 27625 ft | 448 kts | 312° |
| 2026-05-06 04:44 | 24.12762 | -110.77930 | 27926 ft | 449 kts | 312° |
| 2026-05-06 04:44 | 24.15136 | -110.80164 | 28221 ft | 450 kts | 312° |
| 2026-05-06 04:44 | 24.17518 | -110.82398 | 28525 ft | 451 kts | 312° |
| 2026-05-06 04:44 | 24.19911 | -110.84630 | 28818 ft | 452 kts | 312° |
| 2026-05-06 04:45 | 24.22313 | -110.86865 | 29091 ft | 453 kts | 312° |
| 2026-05-06 04:45 | 24.24717 | -110.89103 | 29360 ft | 455 kts | 312° |
| 2026-05-06 04:45 | 24.27132 | -110.91353 | 29590 ft | 456 kts | 311° |
| 2026-05-06 04:45 | 24.29550 | -110.93614 | 29852 ft | 457 kts | 311° |
| 2026-05-06 04:46 | 24.31936 | -110.95847 | 30097 ft | 458 kts | 311° |
| 2026-05-06 04:46 | 24.34364 | -110.98121 | 30329 ft | 459 kts | 311° |
| 2026-05-06 04:46 | 24.36787 | -111.00388 | 30631 ft | 458 kts | 311° |
| 2026-05-06 04:46 | 24.39206 | -111.02650 | 30936 ft | 457 kts | 311° |
| 2026-05-06 04:47 | 24.41619 | -111.04911 | 31234 ft | 456 kts | 311° |
| 2026-05-06 04:47 | 24.44026 | -111.07169 | 31566 ft | 455 kts | 311° |
| 2026-05-06 04:47 | 24.46430 | -111.09423 | 31890 ft | 453 kts | 310° |
| 2026-05-06 04:47 | 24.48820 | -111.11665 | 32222 ft | 452 kts | 310° |
| 2026-05-06 04:48 | 24.51206 | -111.13908 | 32541 ft | 451 kts | 310° |
| 2026-05-06 04:48 | 24.53583 | -111.16145 | 32856 ft | 450 kts | 310° |
| 2026-05-06 04:48 | 24.55958 | -111.18379 | 33156 ft | 449 kts | 310° |
| 2026-05-06 04:48 | 24.58330 | -111.20613 | 33482 ft | 448 kts | 310° |
| 2026-05-06 04:49 | 24.60695 | -111.22842 | 33791 ft | 447 kts | 310° |
| 2026-05-06 04:49 | 24.63055 | -111.25062 | 34089 ft | 446 kts | 310° |
| 2026-05-06 04:49 | 24.65413 | -111.27276 | 34349 ft | 446 kts | 310° |
| 2026-05-06 04:49 | 24.67768 | -111.29488 | 34608 ft | 445 kts | 310° |
| 2026-05-06 04:50 | 24.70117 | -111.31700 | 34906 ft | 444 kts | 309° |
| 2026-05-06 04:50 | 24.72455 | -111.33908 | 35203 ft | 442 kts | 309° |
| 2026-05-06 04:50 | 24.74785 | -111.36110 | 35457 ft | 441 kts | 309° |
| 2026-05-06 04:50 | 24.77111 | -111.38309 | 35688 ft | 441 kts | 309° |
| 2026-05-06 04:51 | 24.79437 | -111.40510 | 35929 ft | 441 kts | 309° |
| 2026-05-06 04:51 | 24.84090 | -111.44907 | 36028 ft | 439 kts | 309° |
| 2026-05-06 04:52 | 24.88711 | -111.49287 | 36027 ft | 438 kts | 309° |
| 2026-05-06 04:52 | 24.93293 | -111.53641 | 36027 ft | 438 kts | 309° |
| 2026-05-06 04:53 | 24.97907 | -111.58014 | 36027 ft | 436 kts | 308° |
| 2026-05-06 04:53 | 25.02502 | -111.62376 | 36025 ft | 436 kts | 308° |
| 2026-05-06 04:54 | 25.07094 | -111.66740 | 36029 ft | 436 kts | 308° |
| 2026-05-06 04:54 | 25.11689 | -111.71111 | 36029 ft | 436 kts | 308° |
| 2026-05-06 04:55 | 25.16280 | -111.75483 | 36040 ft | 436 kts | 308° |
| 2026-05-06 04:55 | 25.20876 | -111.79862 | 36055 ft | 436 kts | 308° |
| 2026-05-06 04:56 | 25.25455 | -111.84236 | 36039 ft | 435 kts | 308° |
| 2026-05-06 04:56 | 25.30172 | -111.88478 | 36040 ft | 447 kts | 316° |
| 2026-05-06 04:56 | 25.32948 | -111.90130 | 36039 ft | 461 kts | 326° |
| 2026-05-06 04:57 | 25.35897 | -111.91525 | 36037 ft | 462 kts | 326° |
| 2026-05-06 04:57 | 25.41811 | -111.94315 | 36037 ft | 462 kts | 326° |
| 2026-05-06 04:58 | 25.47717 | -111.97119 | 36080 ft | 462 kts | 325° |
| 2026-05-06 04:58 | 25.53622 | -111.99938 | 36065 ft | 462 kts | 325° |
| 2026-05-06 04:59 | 25.59529 | -112.02764 | 36058 ft | 462 kts | 325° |
| 2026-05-06 04:59 | 25.65391 | -112.05571 | 36052 ft | 462 kts | 325° |
| 2026-05-06 05:00 | 25.71292 | -112.08393 | 36051 ft | 462 kts | 325° |
| 2026-05-06 05:00 | 25.77200 | -112.11219 | 36067 ft | 462 kts | 324° |
| 2026-05-06 05:01 | 25.83102 | -112.14044 | 36056 ft | 462 kts | 324° |
| 2026-05-06 05:01 | 25.88987 | -112.16868 | 36042 ft | 460 kts | 324° |
| 2026-05-06 05:02 | 25.94865 | -112.19700 | 36041 ft | 460 kts | 324° |
| 2026-05-06 05:02 | 26.00744 | -112.22523 | 36041 ft | 461 kts | 324° |
| 2026-05-06 05:03 | 26.06630 | -112.25355 | 36044 ft | 461 kts | 324° |
| 2026-05-06 05:03 | 26.12511 | -112.28191 | 36043 ft | 461 kts | 324° |
| 2026-05-06 05:04 | 26.18390 | -112.31028 | 36043 ft | 461 kts | 324° |
| 2026-05-06 05:04 | 26.24272 | -112.33870 | 36043 ft | 461 kts | 324° |
| 2026-05-06 05:05 | 26.30150 | -112.36713 | 36064 ft | 461 kts | 324° |
| 2026-05-06 05:05 | 26.36029 | -112.39559 | 36057 ft | 460 kts | 324° |
| 2026-05-06 05:06 | 26.41898 | -112.42405 | 36055 ft | 460 kts | 324° |
| 2026-05-06 05:06 | 26.47766 | -112.45263 | 36046 ft | 460 kts | 324° |
| 2026-05-06 05:07 | 26.53603 | -112.48093 | 36062 ft | 460 kts | 324° |
| 2026-05-06 05:07 | 26.59441 | -112.50923 | 36035 ft | 457 kts | 324° |
| 2026-05-06 05:08 | 26.65274 | -112.53765 | 36032 ft | 457 kts | 324° |
| 2026-05-06 05:08 | 26.71102 | -112.56612 | 36040 ft | 458 kts | 324° |
| 2026-05-06 05:09 | 26.76940 | -112.59464 | 36049 ft | 458 kts | 324° |
| 2026-05-06 05:09 | 26.82783 | -112.62320 | 36087 ft | 458 kts | 324° |
| 2026-05-06 05:10 | 26.88623 | -112.65167 | 36079 ft | 457 kts | 324° |
| 2026-05-06 05:10 | 26.94458 | -112.68029 | 36076 ft | 458 kts | 324° |
| 2026-05-06 05:11 | 27.00291 | -112.70897 | 36078 ft | 458 kts | 324° |
| 2026-05-06 05:11 | 27.06129 | -112.73756 | 36077 ft | 458 kts | 324° |
| 2026-05-06 05:12 | 27.11956 | -112.76608 | 36068 ft | 457 kts | 324° |
| 2026-05-06 05:12 | 27.17777 | -112.79471 | 36092 ft | 457 kts | 323° |
| 2026-05-06 05:13 | 27.23598 | -112.82346 | 36089 ft | 457 kts | 323° |
| 2026-05-06 05:13 | 27.29413 | -112.85223 | 36084 ft | 457 kts | 323° |
| 2026-05-06 05:14 | 27.35196 | -112.88080 | 36078 ft | 457 kts | 323° |
| 2026-05-06 05:14 | 27.41017 | -112.90948 | 36067 ft | 457 kts | 323° |
| 2026-05-06 05:15 | 27.45901 | -112.93357 | 36072 ft | 457 kts | 323° |
| 2026-05-06 05:15 | 27.51726 | -112.96236 | 36065 ft | 456 kts | 323° |
| 2026-05-06 05:16 | 27.57541 | -112.99119 | 36086 ft | 457 kts | 323° |
| 2026-05-06 05:16 | 27.63348 | -113.02007 | 36078 ft | 456 kts | 323° |
| 2026-05-06 05:17 | 27.69128 | -113.04894 | 36065 ft | 458 kts | 323° |
| 2026-05-06 05:17 | 27.74962 | -113.07792 | 36074 ft | 459 kts | 323° |
| 2026-05-06 05:18 | 27.80797 | -113.10694 | 36139 ft | 458 kts | 323° |
| 2026-05-06 05:18 | 27.86614 | -113.13594 | 36072 ft | 456 kts | 323° |
| 2026-05-06 05:19 | 27.92414 | -113.16494 | 36062 ft | 456 kts | 323° |
| 2026-05-06 05:19 | 27.98224 | -113.19394 | 36067 ft | 457 kts | 323° |
| 2026-05-06 05:20 | 28.04045 | -113.22305 | 36062 ft | 457 kts | 323° |
| 2026-05-06 05:20 | 28.09868 | -113.25221 | 36097 ft | 458 kts | 323° |
| 2026-05-06 05:21 | 28.15690 | -113.28145 | 36077 ft | 458 kts | 323° |
| 2026-05-06 05:21 | 28.21512 | -113.31078 | 36067 ft | 458 kts | 323° |
| 2026-05-06 05:22 | 28.27335 | -113.34006 | 36071 ft | 458 kts | 323° |
| 2026-05-06 05:22 | 28.33166 | -113.36933 | 36097 ft | 458 kts | 323° |
| 2026-05-06 05:23 | 28.38996 | -113.39868 | 36086 ft | 458 kts | 323° |
| 2026-05-06 05:23 | 28.47700 | -113.44270 | 36059 ft | 457 kts | 323° |
| 2026-05-06 05:24 | 28.53493 | -113.47204 | 36054 ft | 457 kts | 323° |
| 2026-05-06 05:24 | 28.59299 | -113.50149 | 36077 ft | 457 kts | 323° |
| 2026-05-06 05:25 | 28.65107 | -113.53091 | 36071 ft | 456 kts | 323° |
| 2026-05-06 05:25 | 28.70903 | -113.56020 | 36062 ft | 456 kts | 323° |
| 2026-05-06 05:26 | 28.76707 | -113.58972 | 36075 ft | 456 kts | 323° |
| 2026-05-06 05:26 | 28.82502 | -113.61919 | 36068 ft | 455 kts | 322° |
| 2026-05-06 05:27 | 28.88273 | -113.64857 | 36074 ft | 454 kts | 322° |
| 2026-05-06 05:27 | 28.94048 | -113.67805 | 36063 ft | 455 kts | 322° |
| 2026-05-06 05:28 | 28.99828 | -113.70750 | 36056 ft | 455 kts | 322° |
| 2026-05-06 05:28 | 29.05567 | -113.73684 | 36094 ft | 455 kts | 322° |
| 2026-05-06 05:29 | 29.11341 | -113.76644 | 36065 ft | 454 kts | 322° |
| 2026-05-06 05:29 | 29.17097 | -113.79589 | 36068 ft | 453 kts | 322° |
| 2026-05-06 05:30 | 29.22849 | -113.82543 | 36052 ft | 453 kts | 322° |
| 2026-05-06 05:30 | 29.28610 | -113.85507 | 36057 ft | 454 kts | 322° |
| 2026-05-06 05:31 | 29.34353 | -113.88453 | 36082 ft | 453 kts | 322° |
| 2026-05-06 05:31 | 29.40082 | -113.91396 | 36062 ft | 453 kts | 322° |
| 2026-05-06 05:32 | 29.45828 | -113.94364 | 36058 ft | 453 kts | 322° |
| 2026-05-06 05:32 | 29.51573 | -113.97339 | 36046 ft | 453 kts | 322° |
| 2026-05-06 05:33 | 29.57314 | -114.00299 | 36038 ft | 451 kts | 322° |
| 2026-05-06 05:33 | 29.63034 | -114.03258 | 36031 ft | 451 kts | 322° |
| 2026-05-06 05:34 | 29.68752 | -114.06225 | 36021 ft | 451 kts | 322° |
| 2026-05-06 05:34 | 29.74434 | -114.09179 | 36036 ft | 451 kts | 322° |
| 2026-05-06 05:35 | 29.80146 | -114.12148 | 36011 ft | 449 kts | 322° |
| 2026-05-06 05:35 | 29.85832 | -114.15101 | 36015 ft | 448 kts | 322° |
| 2026-05-06 05:36 | 29.91513 | -114.18058 | 36004 ft | 448 kts | 322° |
| 2026-05-06 05:36 | 29.97133 | -114.20996 | 36004 ft | 448 kts | 322° |
| 2026-05-06 05:37 | 30.02822 | -114.23967 | 36025 ft | 449 kts | 322° |
| 2026-05-06 05:37 | 30.08500 | -114.26921 | 36022 ft | 447 kts | 322° |
| 2026-05-06 05:38 | 30.14174 | -114.29884 | 36013 ft | 447 kts | 322° |
| 2026-05-06 05:38 | 30.19840 | -114.32860 | 36005 ft | 448 kts | 322° |
| 2026-05-06 05:39 | 30.25514 | -114.35839 | 36040 ft | 448 kts | 322° |
| 2026-05-06 05:39 | 30.31171 | -114.38812 | 36011 ft | 446 kts | 322° |
| 2026-05-06 05:40 | 30.36811 | -114.41786 | 36004 ft | 446 kts | 322° |
| 2026-05-06 05:40 | 30.42463 | -114.44759 | 36003 ft | 446 kts | 322° |
| 2026-05-06 05:41 | 30.48116 | -114.47736 | 36051 ft | 446 kts | 322° |
| 2026-05-06 05:41 | 30.53752 | -114.50705 | 35989 ft | 444 kts | 322° |
| 2026-05-06 05:42 | 30.59370 | -114.53673 | 35994 ft | 444 kts | 322° |
| 2026-05-06 05:42 | 30.64986 | -114.56655 | 35989 ft | 444 kts | 322° |
| 2026-05-06 05:43 | 30.70611 | -114.59640 | 35997 ft | 444 kts | 322° |
| 2026-05-06 05:43 | 30.76229 | -114.62625 | 35997 ft | 443 kts | 322° |
| 2026-05-06 05:44 | 30.81833 | -114.65602 | 36000 ft | 443 kts | 322° |
| 2026-05-06 05:44 | 30.87434 | -114.68586 | 36000 ft | 443 kts | 322° |
| 2026-05-06 05:45 | 30.93045 | -114.71575 | 36009 ft | 443 kts | 322° |
| 2026-05-06 05:45 | 30.98650 | -114.74565 | 36002 ft | 443 kts | 322° |
| 2026-05-06 05:46 | 31.04258 | -114.77568 | 36009 ft | 443 kts | 322° |
| 2026-05-06 05:46 | 31.09873 | -114.80565 | 36014 ft | 443 kts | 322° |
| 2026-05-06 05:47 | 31.15482 | -114.83567 | 36009 ft | 443 kts | 322° |
| 2026-05-06 05:47 | 31.21085 | -114.86568 | 36007 ft | 442 kts | 322° |
| 2026-05-06 05:48 | 31.26667 | -114.89564 | 35994 ft | 441 kts | 322° |
| 2026-05-06 05:48 | 31.32249 | -114.92564 | 36003 ft | 442 kts | 322° |
| 2026-05-06 05:49 | 31.37836 | -114.95582 | 36002 ft | 442 kts | 322° |
| 2026-05-06 05:49 | 31.43421 | -114.98600 | 36008 ft | 441 kts | 323° |
| 2026-05-06 05:50 | 31.48956 | -115.01578 | 36004 ft | 441 kts | 323° |
| 2026-05-06 05:50 | 31.54524 | -115.04586 | 36005 ft | 441 kts | 323° |
| 2026-05-06 05:51 | 31.60090 | -115.07607 | 36007 ft | 441 kts | 323° |
| 2026-05-06 05:51 | 31.65660 | -115.10628 | 36035 ft | 442 kts | 323° |
| 2026-05-06 05:52 | 31.71243 | -115.13651 | 36015 ft | 442 kts | 323° |
| 2026-05-06 05:52 | 31.76816 | -115.16677 | 36014 ft | 441 kts | 323° |
| 2026-05-06 05:53 | 31.82389 | -115.19716 | 36013 ft | 442 kts | 323° |
| 2026-05-06 05:53 | 31.87962 | -115.22759 | 36019 ft | 442 kts | 324° |
| 2026-05-06 05:54 | 31.93536 | -115.25801 | 36006 ft | 442 kts | 324° |
| 2026-05-06 05:54 | 31.99120 | -115.28844 | 36001 ft | 442 kts | 324° |
| 2026-05-06 05:55 | 32.04703 | -115.31896 | 36001 ft | 443 kts | 324° |
| 2026-05-06 05:55 | 32.10287 | -115.34969 | 35996 ft | 442 kts | 326° |
| 2026-05-06 05:56 | 32.15851 | -115.38024 | 35989 ft | 441 kts | 326° |
| 2026-05-06 05:56 | 32.21423 | -115.41080 | 36004 ft | 442 kts | 326° |
| 2026-05-06 05:57 | 32.27001 | -115.44141 | 35998 ft | 442 kts | 326° |
| 2026-05-06 05:57 | 32.32574 | -115.47210 | 36024 ft | 442 kts | 327° |
| 2026-05-06 05:58 | 32.38152 | -115.50291 | 36014 ft | 443 kts | 327° |
| 2026-05-06 05:58 | 32.43733 | -115.53376 | 36027 ft | 442 kts | 327° |
| 2026-05-06 05:59 | 32.49270 | -115.56438 | 36024 ft | 442 kts | 327° |
| 2026-05-06 05:59 | 32.54847 | -115.59539 | 36039 ft | 442 kts | 327° |
| 2026-05-06 06:00 | 32.60420 | -115.62646 | 36022 ft | 443 kts | 327° |
| 2026-05-06 06:00 | 32.65368 | -115.66727 | 36047 ft | 427 kts | 309° |
| 2026-05-06 06:01 | 32.68923 | -115.72237 | 36045 ft | 416 kts | 296° |
| 2026-05-06 06:01 | 32.71981 | -115.78076 | 36061 ft | 417 kts | 297° |
| 2026-05-06 06:02 | 32.75062 | -115.83921 | 36043 ft | 419 kts | 298° |
| 2026-05-06 06:02 | 32.78141 | -115.89759 | 36042 ft | 420 kts | 298° |
| 2026-05-06 06:03 | 32.79711 | -115.92748 | 35851 ft | 421 kts | 298° |
| 2026-05-06 06:03 | 32.80734 | -115.94699 | 35682 ft | 421 kts | 297° |
| 2026-05-06 06:03 | 32.82750 | -115.98635 | 35349 ft | 420 kts | 297° |
| 2026-05-06 06:03 | 32.84247 | -116.01623 | 35133 ft | 421 kts | 297° |
| 2026-05-06 06:04 | 32.85732 | -116.04617 | 34900 ft | 421 kts | 296° |
| 2026-05-06 06:04 | 32.87221 | -116.07627 | 34272 ft | 425 kts | 297° |
| 2026-05-06 06:04 | 32.88737 | -116.10680 | 33352 ft | 431 kts | 297° |
| 2026-05-06 06:04 | 32.89750 | -116.12718 | 32790 ft | 434 kts | 298° |
| 2026-05-06 06:05 | 32.91278 | -116.15788 | 32358 ft | 428 kts | 298° |
| 2026-05-06 06:05 | 32.92813 | -116.18861 | 31814 ft | 424 kts | 299° |
| 2026-05-06 06:05 | 32.94300 | -116.21830 | 31290 ft | 421 kts | 299° |
| 2026-05-06 06:05 | 32.95795 | -116.24814 | 30753 ft | 419 kts | 299° |
| 2026-05-06 06:06 | 32.97281 | -116.27783 | 30251 ft | 416 kts | 300° |
| 2026-05-06 06:06 | 32.98751 | -116.30730 | 29692 ft | 412 kts | 300° |
| 2026-05-06 06:06 | 33.00206 | -116.33653 | 29193 ft | 407 kts | 300° |
| 2026-05-06 06:06 | 33.01639 | -116.36537 | 28690 ft | 402 kts | 300° |
| 2026-05-06 06:07 | 33.03053 | -116.39391 | 28216 ft | 398 kts | 300° |
| 2026-05-06 06:07 | 33.04450 | -116.42218 | 27726 ft | 393 kts | 298° |
| 2026-05-06 06:07 | 33.05621 | -116.45136 | 27243 ft | 389 kts | 294° |
| 2026-05-06 06:07 | 33.06710 | -116.48063 | 26788 ft | 384 kts | 294° |
| 2026-05-06 06:08 | 33.07793 | -116.50960 | 26347 ft | 380 kts | 294° |
| 2026-05-06 06:08 | 33.08865 | -116.53825 | 25886 ft | 376 kts | 295° |
| 2026-05-06 06:08 | 33.09925 | -116.56657 | 25454 ft | 372 kts | 295° |
| 2026-05-06 06:08 | 33.10970 | -116.59460 | 25031 ft | 369 kts | 295° |
| 2026-05-06 06:09 | 33.12010 | -116.62239 | 24621 ft | 366 kts | 295° |
| 2026-05-06 06:09 | 33.13008 | -116.65021 | 24217 ft | 363 kts | 290° |
| 2026-05-06 06:09 | 33.13646 | -116.67934 | 23779 ft | 366 kts | 281° |
| 2026-05-06 06:09 | 33.14085 | -116.70994 | 23273 ft | 378 kts | 281° |
| 2026-05-06 06:10 | 33.14537 | -116.74093 | 22800 ft | 379 kts | 281° |
| 2026-05-06 06:10 | 33.14991 | -116.77189 | 22335 ft | 378 kts | 282° |
| 2026-05-06 06:10 | 33.15444 | -116.80266 | 21875 ft | 375 kts | 282° |
| 2026-05-06 06:10 | 33.15896 | -116.83324 | 21421 ft | 373 kts | 282° |
| 2026-05-06 06:11 | 33.16344 | -116.86359 | 20967 ft | 370 kts | 282° |
| 2026-05-06 06:11 | 33.16787 | -116.89377 | 20511 ft | 368 kts | 282° |
| 2026-05-06 06:11 | 33.17224 | -116.92380 | 20071 ft | 366 kts | 282° |
| 2026-05-06 06:11 | 33.17659 | -116.95373 | 19610 ft | 365 kts | 282° |
| 2026-05-06 06:12 | 33.18089 | -116.98355 | 19168 ft | 364 kts | 282° |
| 2026-05-06 06:12 | 33.18520 | -117.01323 | 18725 ft | 362 kts | 282° |
| 2026-05-06 06:12 | 33.18947 | -117.04274 | 18269 ft | 360 kts | 282° |
| 2026-05-06 06:12 | 33.19373 | -117.07217 | 17703 ft | 360 kts | 282° |
| 2026-05-06 06:13 | 33.19795 | -117.10140 | 17263 ft | 356 kts | 282° |
| 2026-05-06 06:13 | 33.20211 | -117.13041 | 16831 ft | 352 kts | 282° |
| 2026-05-06 06:13 | 33.20621 | -117.15910 | 16400 ft | 349 kts | 282° |
| 2026-05-06 06:13 | 33.21026 | -117.18759 | 15999 ft | 347 kts | 282° |
| 2026-05-06 06:14 | 33.21428 | -117.21589 | 15581 ft | 345 kts | 282° |
| 2026-05-06 06:14 | 33.21831 | -117.24410 | 15161 ft | 344 kts | 282° |
| 2026-05-06 06:14 | 33.22228 | -117.27176 | 14751 ft | 342 kts | 282° |
| 2026-05-06 06:14 | 33.22627 | -117.29966 | 14334 ft | 340 kts | 282° |
| 2026-05-06 06:15 | 33.23025 | -117.32741 | 13926 ft | 338 kts | 282° |
| 2026-05-06 06:15 | 33.23439 | -117.35492 | 13831 ft | 336 kts | 283° |
| 2026-05-06 06:15 | 33.23870 | -117.38237 | 13732 ft | 337 kts | 283° |
| 2026-05-06 06:15 | 33.24308 | -117.40981 | 13592 ft | 336 kts | 283° |
| 2026-05-06 06:16 | 33.24744 | -117.43725 | 13467 ft | 336 kts | 283° |
| 2026-05-06 06:16 | 33.25180 | -117.46498 | 13351 ft | 335 kts | 283° |
| 2026-05-06 06:16 | 33.25599 | -117.49198 | 13210 ft | 335 kts | 283° |
| 2026-05-06 06:16 | 33.26068 | -117.51926 | 13085 ft | 334 kts | 289° |
| 2026-05-06 06:17 | 33.26929 | -117.54484 | 12918 ft | 331 kts | 301° |
| 2026-05-06 06:17 | 33.28135 | -117.56803 | 12682 ft | 328 kts | 306° |
| 2026-05-06 06:17 | 33.29374 | -117.59088 | 12454 ft | 327 kts | 306° |
| 2026-05-06 06:17 | 33.30607 | -117.61368 | 12238 ft | 327 kts | 306° |
| 2026-05-06 06:18 | 33.31840 | -117.63653 | 12014 ft | 326 kts | 306° |
| 2026-05-06 06:18 | 33.33066 | -117.65930 | 11781 ft | 325 kts | 306° |
| 2026-05-06 06:18 | 33.34286 | -117.68206 | 11571 ft | 325 kts | 306° |
| 2026-05-06 06:18 | 33.35505 | -117.70477 | 11350 ft | 324 kts | 306° |
| 2026-05-06 06:19 | 33.36723 | -117.72742 | 11134 ft | 323 kts | 306° |
| 2026-05-06 06:19 | 33.37939 | -117.75003 | 10913 ft | 323 kts | 306° |
| 2026-05-06 06:19 | 33.39153 | -117.77262 | 10697 ft | 322 kts | 306° |
| 2026-05-06 06:19 | 33.40362 | -117.79520 | 10485 ft | 322 kts | 306° |
| 2026-05-06 06:20 | 33.41562 | -117.81766 | 10282 ft | 316 kts | 306° |
| 2026-05-06 06:20 | 33.42720 | -117.83941 | 10158 ft | 304 kts | 306° |
| 2026-05-06 06:20 | 33.43839 | -117.86045 | 9963 ft | 296 kts | 306° |
| 2026-05-06 06:20 | 33.44948 | -117.88129 | 9860 ft | 297 kts | 306° |
| 2026-05-06 06:21 | 33.46059 | -117.90213 | 9677 ft | 296 kts | 306° |
| 2026-05-06 06:21 | 33.47301 | -117.92151 | 9498 ft | 291 kts | 319° |
| 2026-05-06 06:21 | 33.48885 | -117.93616 | 9314 ft | 285 kts | 333° |
| 2026-05-06 06:21 | 33.50681 | -117.94562 | 9141 ft | 281 kts | 343° |
| 2026-05-06 06:22 | 33.52523 | -117.95355 | 8959 ft | 281 kts | 343° |
| 2026-05-06 06:22 | 33.54360 | -117.96147 | 8791 ft | 280 kts | 343° |
| 2026-05-06 06:22 | 33.56189 | -117.96939 | 8615 ft | 279 kts | 342° |
| 2026-05-06 06:22 | 33.58013 | -117.97733 | 8441 ft | 278 kts | 342° |
| 2026-05-06 06:23 | 33.59829 | -117.98527 | 8262 ft | 277 kts | 342° |
| 2026-05-06 06:23 | 33.61641 | -117.99319 | 8091 ft | 277 kts | 342° |
| 2026-05-06 06:23 | 33.63456 | -118.00083 | 7887 ft | 276 kts | 343° |
| 2026-05-06 06:23 | 33.65254 | -118.00763 | 7659 ft | 274 kts | 345° |
| 2026-05-06 06:24 | 33.67078 | -118.01416 | 7433 ft | 273 kts | 345° |
| 2026-05-06 06:24 | 33.68902 | -118.02060 | 7200 ft | 273 kts | 344° |
| 2026-05-06 06:24 | 33.70716 | -118.02704 | 7049 ft | 272 kts | 344° |
| 2026-05-06 06:24 | 33.72527 | -118.03353 | 7019 ft | 272 kts | 344° |
| 2026-05-06 06:25 | 33.74297 | -118.03994 | 7009 ft | 257 kts | 343° |
| 2026-05-06 06:25 | 33.75953 | -118.04600 | 6975 ft | 241 kts | 343° |
| 2026-05-06 06:25 | 33.79036 | -118.05763 | 6882 ft | 231 kts | 341° |
| 2026-05-06 06:26 | 33.80539 | -118.06449 | 6592 ft | 231 kts | 339° |
| 2026-05-06 06:26 | 33.82022 | -118.07171 | 6311 ft | 229 kts | 338° |
| 2026-05-06 06:26 | 33.83484 | -118.07893 | 6024 ft | 226 kts | 338° |
| 2026-05-06 06:26 | 33.84937 | -118.08608 | 5754 ft | 225 kts | 337° |
| 2026-05-06 06:27 | 33.86387 | -118.09315 | 5492 ft | 225 kts | 337° |
| 2026-05-06 06:27 | 33.87839 | -118.10018 | 5235 ft | 225 kts | 337° |
| 2026-05-06 06:27 | 33.89311 | -118.10627 | 4988 ft | 224 kts | 348° |
| 2026-05-06 06:27 | 33.90858 | -118.10786 | 4801 ft | 224 kts | 356° |
| 2026-05-06 06:28 | 33.92405 | -118.10988 | 4551 ft | 222 kts | 343° |
| 2026-05-06 06:28 | 33.93761 | -118.11761 | 4310 ft | 213 kts | 323° |
| 2026-05-06 06:28 | 33.94893 | -118.12839 | 4103 ft | 201 kts | 317° |
| 2026-05-06 06:28 | 33.95687 | -118.14143 | 3872 ft | 189 kts | 293° |
| 2026-05-06 06:29 | 33.95954 | -118.15672 | 3667 ft | 187 kts | 272° |
| 2026-05-06 06:29 | 33.95983 | -118.17232 | 3456 ft | 187 kts | 265° |
| 2026-05-06 06:29 | 33.95820 | -118.18785 | 3218 ft | 187 kts | 262° |
| 2026-05-06 06:29 | 33.95644 | -118.20334 | 2981 ft | 187 kts | 262° |
| 2026-05-06 06:30 | 33.95467 | -118.21884 | 2744 ft | 187 kts | 262° |
| 2026-05-06 06:30 | 33.95280 | -118.23429 | 2541 ft | 187 kts | 261° |
| 2026-05-06 06:30 | 33.95095 | -118.24978 | 2317 ft | 186 kts | 261° |
| 2026-05-06 06:30 | 33.94933 | -118.26493 | 2076 ft | 179 kts | 262° |
| 2026-05-06 06:31 | 33.94782 | -118.27965 | 1845 ft | 176 kts | 262° |
| 2026-05-06 06:31 | 33.94634 | -118.29417 | 1608 ft | 174 kts | 262° |
| 2026-05-06 06:31 | 33.94490 | -118.30838 | 1380 ft | 172 kts | 262° |
| 2026-05-06 06:31 | 33.94349 | -118.32233 | 1157 ft | 159 kts | 261° |
| 2026-05-06 06:32 | 33.94221 | -118.33500 | 938 ft | 148 kts | 261° |
| 2026-05-06 06:32 | 33.94099 | -118.34704 | 740 ft | 143 kts | 262° |
| 2026-05-06 06:32 | 33.93980 | -118.35882 | 553 ft | 141 kts | 262° |
| 2026-05-06 06:32 | 33.93861 | -118.37048 | 369 ft | 140 kts | 262° |
| 2026-05-06 06:33 | 33.93739 | -118.38233 | 184 ft | 141 kts | 262° |
| 2026-05-06 06:33 | 33.93621 | -118.39388 | 96 ft | 131 kts | 262° |
| 2026-05-06 06:33 | 33.93530 | -118.40300 | 95 ft | 85 kts | 263° |
| 2026-05-06 06:33 | 33.93484 | -118.40748 | 94 ft | 27 kts | 264° |
| 2026-05-06 06:34 | 33.93482 | -118.40966 | 95 ft | 25 kts | 277° |
| 2026-05-06 06:34 | 33.93517 | -118.41114 | 96 ft | 10 kts | 292° |
| 2026-05-06 06:34 | 33.93544 | -118.41194 | 94 ft | 10 kts | 292° |
| 2026-05-06 06:34 | 33.93582 | -118.41253 | 95 ft | 8 kts | 329° |
| 2026-05-06 06:35 | 33.93633 | -118.41267 | 96 ft | 11 kts | 351° |
| 2026-05-06 06:35 | 33.93747 | -118.41266 | 95 ft | 18 kts | 21° |
| 2026-05-06 06:35 | 33.93850 | -118.41259 | 95 ft | 17 kts | 353° |
| 2026-05-06 06:35 | 33.94003 | -118.41282 | 93 ft | 28 kts | 353° |
| 2026-05-06 06:36 | 33.94179 | -118.41308 | 95 ft | 20 kts | 352° |
| 2026-05-06 06:36 | 33.94315 | -118.41328 | 96 ft | 19 kts | 353° |
| 2026-05-06 06:36 | 33.94447 | -118.41347 | 93 ft | 19 kts | 353° |
| 2026-05-06 06:36 | 33.94576 | -118.41367 | 94 ft | 18 kts | 353° |
| 2026-05-06 06:37 | 33.94661 | -118.41377 | 95 ft | 9 kts | 7° |
| 2026-05-06 06:37 | 33.94687 | -118.41319 | 96 ft | 11 kts | 82° |
| 2026-05-06 06:37 | 33.94711 | -118.41197 | 93 ft | 16 kts | 71° |
| 2026-05-06 06:37 | 33.94731 | -118.41085 | 97 ft | 13 kts | 83° |
| 2026-05-06 06:38 | 33.94740 | -118.41001 | 93 ft | 10 kts | 83° |
| 2026-05-06 06:38 | 33.94738 | -118.40958 | 93 ft | 2 kts | 121° |
| 2026-05-06 06:38 | 33.94727 | -118.40953 | 95 ft | 2 kts | 176° |
| 2026-05-06 06:38 | 33.94718 | -118.40960 | 94 ft | 1 kts | 225° |
| 2026-05-06 06:39 | 33.94712 | -118.40964 | 93 ft | 0 kts | 210° |
| 2026-05-06 06:39 | 33.94697 | -118.40977 | 96 ft | 3 kts | 218° |
| 2026-05-06 06:40 | 33.94690 | -118.40983 | 96 ft | 1 kts | 219° |
| 2026-05-06 06:40 | 33.94686 | -118.40988 | 93 ft | 0 kts | 219° |
| 2026-05-06 06:40 | 33.94682 | -118.40991 | 95 ft | 0 kts | 219° |
| 2026-05-06 06:44 | 33.94683 | -118.40991 | 95 ft | 0 kts | 220° |